createdAt,value
2018-03-03T00:01:12.875Z,100604.80
2018-03-03T00:03:38.605Z,100602.41
2018-03-03T00:06:04.352Z,100612.56
2018-03-03T00:08:30.086Z,100615.25
2018-03-03T00:10:55.840Z,100610.05
2018-03-03T00:13:21.579Z,100605.05
2018-03-03T00:15:47.319Z,100605.36
2018-03-03T00:18:13.060Z,100605.05
2018-03-03T00:20:38.826Z,100601.70
2018-03-03T00:23:04.561Z,100609.58
2018-03-03T00:25:30.328Z,100608.11
2018-03-03T00:27:56.066Z,100612.02
2018-03-03T00:30:21.811Z,100601.70
2018-03-03T00:32:47.560Z,100596.69
2018-03-03T00:35:13.315Z,100595.54
2018-03-03T00:37:39.059Z,100593.86
2018-03-03T00:40:04.812Z,100601.06
2018-03-03T00:42:30.549Z,100596.23
2018-03-03T00:44:56.287Z,100600.53
2018-03-03T00:47:22.034Z,100604.45
2018-03-03T00:49:47.762Z,100595.48
2018-03-03T00:52:13.528Z,100602.99
2018-03-03T00:54:39.253Z,100599.45
2018-03-03T00:57:05.008Z,100600.73
2018-03-03T00:59:30.756Z,100606.87
2018-03-03T01:01:56.506Z,100605.66
2018-03-03T01:04:22.253Z,100604.39
2018-03-03T01:06:48.003Z,100596.17
2018-03-03T01:09:13.743Z,100601.36
2018-03-03T01:11:39.503Z,100596.36
2018-03-03T01:14:05.259Z,100596.17
2018-03-03T01:16:31.010Z,100598.47
2018-03-03T01:18:56.770Z,100595.98
2018-03-03T01:21:22.517Z,100591.44
2018-03-03T01:23:48.271Z,100588.98
2018-03-03T01:26:14.025Z,100586.75
2018-03-03T01:28:39.766Z,100590.92
2018-03-03T01:31:05.527Z,100592.70
2018-03-03T01:33:31.266Z,100588.02
2018-03-03T01:35:57.029Z,100586.80
2018-03-03T01:38:22.770Z,100593.54
2018-03-03T01:40:48.522Z,100590.02
2018-03-03T01:43:14.474Z,100591.50
2018-03-03T01:45:40.217Z,100592.86
2018-03-03T01:48:05.962Z,100592.27
2018-03-03T01:50:31.694Z,100598.83
2018-03-03T01:52:57.446Z,100596.33
2018-03-03T01:55:23.182Z,100596.84
2018-03-03T01:57:48.927Z,100592.64
2018-03-03T02:00:14.657Z,100593.42
2018-03-03T02:02:40.412Z,100591.81
2018-03-03T02:05:06.153Z,100591.25
2018-03-03T02:07:31.901Z,100587.58
2018-03-03T02:09:57.639Z,100585.00
2018-03-03T02:12:23.390Z,100585.52
2018-03-03T02:14:49.126Z,100589.56
2018-03-03T02:17:14.865Z,100586.07
2018-03-03T02:19:40.606Z,100586.67
2018-03-03T02:22:06.334Z,100585.33
2018-03-03T02:24:32.062Z,100579.52
2018-03-03T02:26:57.807Z,100577.92
2018-03-03T02:29:23.556Z,100577.84
2018-03-03T02:31:56.410Z,100569.19
2018-03-03T02:34:22.190Z,100571.30
2018-03-03T02:36:47.930Z,100567.14
2018-03-03T02:39:13.671Z,100565.66
2018-03-03T02:41:39.411Z,100568.55
2018-03-03T02:44:05.163Z,100564.70
2018-03-03T02:46:30.901Z,100560.53
2018-03-03T02:48:56.664Z,100564.95
2018-03-03T02:51:22.444Z,100562.24
2018-03-03T02:53:48.204Z,100557.64
2018-03-03T02:56:13.943Z,100568.92
2018-03-03T02:58:39.706Z,100561.16
2018-03-03T03:01:05.451Z,100564.36
2018-03-03T03:03:31.194Z,100561.36
2018-03-03T03:05:56.954Z,100558.55
2018-03-03T03:08:22.697Z,100557.95
2018-03-03T03:10:48.445Z,100558.00
2018-03-03T03:13:14.222Z,100560.97
2018-03-03T03:15:40.130Z,100565.95
2018-03-03T03:18:05.852Z,100566.41
2018-03-03T03:20:31.597Z,100571.94
2018-03-03T03:22:57.351Z,100573.08
2018-03-03T03:25:23.088Z,100564.09
2018-03-03T03:27:48.829Z,100561.66
2018-03-03T03:30:14.574Z,100552.05
2018-03-03T03:32:40.328Z,100563.78
2018-03-03T03:35:06.093Z,100568.38
2018-03-03T03:37:31.823Z,100556.92
2018-03-03T03:39:57.562Z,100569.60
2018-03-03T03:42:23.303Z,100556.00
2018-03-03T03:44:49.047Z,100563.31
2018-03-03T03:47:14.779Z,100554.72
2018-03-03T03:49:40.598Z,100556.13
2018-03-03T03:52:06.334Z,100554.46
2018-03-03T03:54:32.081Z,100557.67
2018-03-03T03:56:57.814Z,100551.88
2018-03-03T03:59:23.675Z,100551.48
2018-03-03T04:01:49.393Z,100544.89
2018-03-03T04:04:15.167Z,100537.47
2018-03-03T04:06:40.878Z,100538.53
2018-03-03T04:09:06.618Z,100535.98
2018-03-03T04:11:32.390Z,100534.44
2018-03-03T04:13:58.122Z,100537.03
2018-03-03T04:16:23.871Z,100538.86
2018-03-03T04:18:49.613Z,100532.01
2018-03-03T04:21:15.370Z,100532.33
2018-03-03T04:23:41.114Z,100532.45
2018-03-03T04:26:06.874Z,100538.81
2018-03-03T04:28:32.621Z,100534.66
2018-03-03T04:30:59.025Z,100539.70
2018-03-03T04:33:25.189Z,100541.05
2018-03-03T04:35:50.994Z,100537.97
2018-03-03T04:38:16.729Z,100534.95
2018-03-03T04:40:42.484Z,100539.45
2018-03-03T04:43:08.225Z,100531.42
2018-03-03T04:45:33.965Z,100530.44
2018-03-03T04:47:59.712Z,100531.53
2018-03-03T04:50:25.462Z,100525.58
2018-03-03T04:52:51.202Z,100524.17
2018-03-03T04:55:16.966Z,100515.58
2018-03-03T04:57:42.721Z,100514.80
2018-03-03T05:00:09.370Z,100516.33
2018-03-03T05:05:45.794Z,100520.04
2018-03-03T05:08:11.534Z,100520.70
2018-03-03T05:10:38.238Z,100523.02
2018-03-03T05:16:10.774Z,100524.98
2018-03-03T05:18:42.564Z,100515.16
2018-03-03T05:21:10.144Z,100515.25
2018-03-03T05:23:41.999Z,100517.80
2018-03-03T05:26:13.824Z,100522.42
2018-03-03T05:28:45.631Z,100520.67
2018-03-03T05:31:17.457Z,100518.17
2018-03-03T05:36:44.675Z,100519.33
2018-03-03T05:39:16.486Z,100524.31
2018-03-03T05:44:51.090Z,100529.80
2018-03-03T05:47:22.934Z,100527.55
2018-03-03T05:49:54.766Z,100534.75
2018-03-03T05:55:26.779Z,100540.55
2018-03-03T06:01:14.991Z,100545.62
2018-03-03T06:07:04.959Z,100543.91
2018-03-03T06:09:30.714Z,100540.29
2018-03-03T06:11:56.469Z,100541.91
2018-03-03T06:14:22.215Z,100538.93
2018-03-03T06:16:47.955Z,100539.14
2018-03-03T06:19:13.706Z,100550.55
2018-03-03T06:21:39.437Z,100550.44
2018-03-03T06:24:05.198Z,100551.42
2018-03-03T06:26:30.929Z,100548.11
2018-03-03T06:28:56.673Z,100556.42
2018-03-03T06:31:22.405Z,100545.17
2018-03-03T06:33:48.150Z,100548.92
2018-03-03T06:36:13.882Z,100549.50
2018-03-03T06:38:39.628Z,100548.20
2018-03-03T06:41:05.351Z,100547.12
2018-03-03T06:43:31.082Z,100546.14
2018-03-03T06:45:56.818Z,100550.27
2018-03-03T06:48:22.561Z,100549.61
2018-03-03T06:50:48.293Z,100555.47
2018-03-03T06:53:14.037Z,100551.33
2018-03-03T06:55:39.770Z,100550.53
2018-03-03T06:58:05.502Z,100549.83
2018-03-03T07:00:31.253Z,100549.88
2018-03-03T07:02:56.992Z,100546.02
2018-03-03T07:05:22.747Z,100544.63
2018-03-03T07:07:48.494Z,100542.79
2018-03-03T07:10:14.244Z,100545.28
2018-03-03T07:12:39.978Z,100550.69
2018-03-03T07:15:13.749Z,100533.96
2018-03-03T07:17:39.490Z,100538.86
2018-03-03T07:20:05.237Z,100531.70
2018-03-03T07:22:30.987Z,100526.69
2018-03-03T07:24:56.722Z,100534.31
2018-03-03T07:27:22.445Z,100527.20
2018-03-03T07:29:48.185Z,100532.70
2018-03-03T07:32:13.922Z,100532.44
2018-03-03T07:34:39.683Z,100540.48
2018-03-03T07:37:05.427Z,100544.69
2018-03-03T07:39:31.194Z,100544.08
2018-03-03T07:41:56.921Z,100550.15
2018-03-03T07:44:22.701Z,100533.06
2018-03-03T07:46:48.443Z,100552.45
2018-03-03T07:49:14.205Z,100540.91
2018-03-03T07:51:39.946Z,100538.98
2018-03-03T07:54:05.687Z,100536.48
2018-03-03T07:56:43.887Z,100532.24
2018-03-03T07:59:09.627Z,100534.10
2018-03-03T08:01:35.394Z,100532.37
2018-03-03T08:04:01.128Z,100530.42
2018-03-03T08:06:26.879Z,100536.30
2018-03-03T08:08:52.624Z,100522.92
2018-03-03T08:11:18.374Z,100528.24
2018-03-03T08:13:44.119Z,100527.11
2018-03-03T08:16:09.877Z,100530.98
2018-03-03T08:18:35.619Z,100528.23
2018-03-03T08:21:01.382Z,100532.13
2018-03-03T08:23:27.119Z,100524.77
2018-03-03T08:25:52.885Z,100521.48
2018-03-03T08:28:18.634Z,100533.48
2018-03-03T08:30:44.379Z,100531.67
2018-03-03T08:33:10.118Z,100532.81
2018-03-03T08:35:35.875Z,100529.16
2018-03-03T08:38:01.632Z,100525.25
2018-03-03T08:40:27.383Z,100523.47
2018-03-03T08:42:53.125Z,100524.47
2018-03-03T08:45:18.870Z,100526.81
2018-03-03T08:47:44.605Z,100536.09
2018-03-03T08:50:10.341Z,100529.64
2018-03-03T08:52:36.107Z,100525.98
2018-03-03T08:55:01.847Z,100529.79
2018-03-03T08:57:27.589Z,100528.50
2018-03-03T08:59:53.353Z,100523.69
2018-03-03T09:02:19.103Z,100527.92
2018-03-03T09:04:44.859Z,100525.58
2018-03-03T09:07:10.617Z,100522.48
2018-03-03T09:09:36.359Z,100517.00
2018-03-03T09:12:02.114Z,100524.64
2018-03-03T09:14:27.859Z,100526.05
2018-03-03T09:16:53.602Z,100519.35
2018-03-03T09:19:19.340Z,100528.68
2018-03-03T09:21:45.090Z,100527.06
2018-03-03T09:24:10.814Z,100530.83
2018-03-03T09:26:36.576Z,100531.30
2018-03-03T09:29:02.311Z,100533.25
2018-03-03T09:31:28.042Z,100529.64
2018-03-03T09:33:53.782Z,100526.27
2018-03-03T09:36:19.518Z,100526.76
2018-03-03T09:38:45.264Z,100518.03
2018-03-03T09:41:11.035Z,100526.17
2018-03-03T09:43:36.809Z,100522.74
2018-03-03T09:46:02.558Z,100518.50
2018-03-03T09:48:28.322Z,100512.88
2018-03-03T09:50:54.069Z,100515.41
2018-03-03T09:53:19.837Z,100511.02
2018-03-03T09:55:45.582Z,100509.61
2018-03-03T09:58:11.339Z,100506.18
2018-03-03T10:00:37.090Z,100509.83
2018-03-03T10:03:02.869Z,100508.36
2018-03-03T10:05:28.612Z,100505.10
2018-03-03T10:07:54.341Z,100495.11
2018-03-03T10:10:20.094Z,100497.11
2018-03-03T10:12:45.847Z,100508.11
2018-03-03T10:15:11.588Z,100498.39
2018-03-03T10:17:37.343Z,100501.00
2018-03-03T10:20:03.093Z,100498.84
2018-03-03T10:22:28.852Z,100505.17
2018-03-03T10:24:54.585Z,100499.91
2018-03-03T10:27:20.353Z,100496.31
2018-03-03T10:29:46.099Z,100490.81
2018-03-03T10:32:11.852Z,100495.03
2018-03-03T10:34:37.638Z,100490.33
2018-03-03T10:37:03.370Z,100493.73
2018-03-03T10:39:29.131Z,100481.52
2018-03-03T10:41:54.886Z,100479.80
2018-03-03T10:44:20.638Z,100491.69
2018-03-03T10:46:46.390Z,100490.04
2018-03-03T10:49:12.143Z,100488.88
2018-03-03T10:51:37.913Z,100493.70
2018-03-03T10:54:03.662Z,100488.47
2018-03-03T10:56:29.408Z,100483.59
2018-03-03T10:58:55.146Z,100479.45
2018-03-03T11:01:20.894Z,100472.53
2018-03-03T11:03:46.639Z,100474.30
2018-03-03T11:06:12.375Z,100471.70
2018-03-03T11:08:38.155Z,100475.66
2018-03-03T11:11:03.911Z,100476.54
2018-03-03T11:13:29.651Z,100467.43
2018-03-03T11:15:55.422Z,100468.02
2018-03-03T11:18:21.157Z,100470.89
2018-03-03T11:20:46.928Z,100473.50
2018-03-03T11:23:12.666Z,100475.05
2018-03-03T11:25:38.430Z,100472.33
2018-03-03T11:28:04.187Z,100467.34
2018-03-03T11:30:29.938Z,100468.80
2018-03-03T11:32:55.697Z,100472.14
2018-03-03T11:35:21.458Z,100476.63
2018-03-03T11:37:47.208Z,100473.21
2018-03-03T11:40:12.962Z,100460.37
2018-03-03T11:42:38.714Z,100458.55
2018-03-03T11:45:04.489Z,100456.34
2018-03-03T11:47:30.230Z,100450.19
2018-03-03T11:49:55.984Z,100455.73
2018-03-03T11:52:21.777Z,100451.91
2018-03-03T11:54:47.514Z,100449.93
2018-03-03T11:57:13.261Z,100453.07
2018-03-03T11:59:38.994Z,100448.87
2018-03-03T12:02:04.749Z,100448.47
2018-03-03T12:04:30.702Z,100448.03
2018-03-03T12:06:56.579Z,100443.72
2018-03-03T12:09:22.374Z,100442.20
2018-03-03T12:11:48.138Z,100443.87
2018-03-03T12:14:13.890Z,100435.47
2018-03-03T12:16:39.651Z,100432.50
2018-03-03T12:19:05.396Z,100440.22
2018-03-03T12:21:31.181Z,100431.56
2018-03-03T12:23:56.892Z,100432.12
2018-03-03T12:26:22.914Z,100428.55
2018-03-03T12:28:48.659Z,100427.95
2018-03-03T12:31:14.417Z,100430.88
2018-03-03T12:33:40.176Z,100431.17
2018-03-03T12:36:05.922Z,100426.55
2018-03-03T12:38:31.686Z,100412.53
2018-03-03T12:40:57.524Z,100425.58
2018-03-03T12:43:23.278Z,100422.49
2018-03-03T12:45:49.039Z,100421.68
2018-03-03T12:48:15.314Z,100422.53
2018-03-03T12:50:41.059Z,100418.71
2018-03-03T12:53:06.810Z,100426.80
2018-03-03T12:55:32.545Z,100422.31
2018-03-03T12:57:58.460Z,100424.16
2018-03-03T13:00:24.205Z,100419.67
2018-03-03T13:02:49.950Z,100421.81
2018-03-03T13:05:15.705Z,100423.37
2018-03-03T13:07:41.459Z,100415.23
2018-03-03T13:10:07.218Z,100424.73
2018-03-03T13:12:32.964Z,100415.23
2018-03-03T13:14:58.726Z,100423.76
2018-03-03T13:17:24.471Z,100415.31
2018-03-03T13:19:50.213Z,100422.42
2018-03-03T13:22:15.962Z,100410.05
2018-03-03T13:24:41.710Z,100407.86
2018-03-03T13:27:07.454Z,100415.73
2018-03-03T13:29:33.235Z,100409.19
2018-03-03T13:31:58.974Z,100413.40
2018-03-03T13:34:24.738Z,100416.09
2018-03-03T13:36:50.487Z,100415.81
2018-03-03T13:39:16.247Z,100401.20
2018-03-03T13:41:42.000Z,100402.16
2018-03-03T13:44:07.751Z,100406.87
2018-03-03T13:46:33.504Z,100405.09
2018-03-03T13:48:59.387Z,100400.53
2018-03-03T13:51:25.127Z,100400.02
2018-03-03T13:53:50.891Z,100399.23
2018-03-03T13:56:16.687Z,100400.98
2018-03-03T13:58:42.398Z,100400.13
2018-03-03T14:01:08.170Z,100396.38
2018-03-03T14:03:34.122Z,100395.43
2018-03-03T14:05:59.914Z,100391.91
2018-03-03T14:08:25.669Z,100394.59
2018-03-03T14:10:51.431Z,100372.95
2018-03-03T14:13:17.253Z,100381.72
2018-03-03T14:15:43.011Z,100369.31
2018-03-03T14:18:08.899Z,100387.62
2018-03-03T14:20:34.659Z,100384.75
2018-03-03T14:23:00.438Z,100376.94
2018-03-03T14:25:26.193Z,100375.19
2018-03-03T14:27:52.062Z,100373.92
2018-03-03T14:30:17.914Z,100378.66
2018-03-03T14:32:43.854Z,100377.08
2018-03-03T14:35:09.634Z,100381.20
2018-03-03T14:37:35.403Z,100381.45
2018-03-03T14:40:01.155Z,100387.20
2018-03-03T14:42:26.948Z,100379.28
2018-03-03T14:44:52.706Z,100383.47
2018-03-03T14:47:18.465Z,100370.88
2018-03-03T14:49:44.227Z,100373.02
2018-03-03T14:52:09.995Z,100371.23
2018-03-03T14:54:35.746Z,100368.23
2018-03-03T14:57:01.540Z,100368.50
2018-03-03T14:59:27.278Z,100363.02
2018-03-03T15:01:53.049Z,100371.05
2018-03-03T15:04:18.795Z,100367.84
2018-03-03T15:06:44.559Z,100371.64
2018-03-03T15:09:10.322Z,100363.36
2018-03-03T15:11:36.160Z,100371.41
2018-03-03T15:14:01.930Z,100372.39
2018-03-03T15:16:27.695Z,100374.47
2018-03-03T15:18:53.469Z,100369.97
2018-03-03T15:21:19.215Z,100353.37
2018-03-03T15:23:44.979Z,100366.48
2018-03-03T15:26:10.747Z,100363.94
2018-03-03T15:28:36.514Z,100369.52
2018-03-03T15:31:02.278Z,100360.39
2018-03-03T15:33:28.045Z,100351.27
2018-03-03T15:35:53.790Z,100351.22
2018-03-03T15:38:19.549Z,100351.19
2018-03-03T15:40:45.306Z,100358.44
2018-03-03T15:43:11.077Z,100361.04
2018-03-03T15:45:36.827Z,100356.27
2018-03-03T15:48:02.593Z,100356.63
2018-03-03T15:50:28.350Z,100350.00
2018-03-03T15:52:54.089Z,100350.41
2018-03-03T15:55:19.831Z,100347.72
2018-03-03T15:57:45.594Z,100337.75
2018-03-03T16:00:11.331Z,100336.42
2018-03-03T16:02:37.065Z,100332.52
2018-03-03T16:05:02.826Z,100341.97
2018-03-03T16:07:28.563Z,100341.02
2018-03-03T16:09:55.349Z,100337.91
2018-03-03T16:12:21.244Z,100348.16
2018-03-03T16:14:46.972Z,100343.22
2018-03-03T16:17:12.759Z,100339.81
2018-03-03T16:19:38.465Z,100328.46
2018-03-03T16:22:04.209Z,100323.81
2018-03-03T16:24:29.947Z,100333.58
2018-03-03T16:26:55.686Z,100335.70
2018-03-03T16:29:21.423Z,100333.08
2018-03-03T16:31:47.176Z,100336.78
2018-03-03T16:34:12.922Z,100335.46
2018-03-03T16:36:38.670Z,100343.13
2018-03-03T16:39:04.491Z,100331.41
2018-03-03T16:41:30.177Z,100331.72
2018-03-03T16:43:55.927Z,100335.13
2018-03-03T16:46:21.668Z,100335.89
2018-03-03T16:48:47.418Z,100344.02
2018-03-03T16:51:13.174Z,100343.05
2018-03-03T16:53:38.910Z,100346.48
2018-03-03T16:56:04.670Z,100346.39
2018-03-03T16:58:30.415Z,100342.07
2018-03-03T17:00:56.180Z,100345.03
2018-03-03T17:03:21.913Z,100346.70
2018-03-03T17:05:47.653Z,100342.76
2018-03-03T17:08:13.483Z,100355.75
2018-03-03T17:10:39.256Z,100356.88
2018-03-03T17:13:04.999Z,100355.93
2018-03-03T17:15:30.766Z,100360.22
2018-03-03T17:17:56.511Z,100360.96
2018-03-03T17:20:22.284Z,100357.97
2018-03-03T17:22:48.038Z,100363.03
2018-03-03T17:25:13.768Z,100361.27
2018-03-03T17:27:39.573Z,100365.48
2018-03-03T17:30:05.287Z,100359.44
2018-03-03T17:32:31.060Z,100366.57
2018-03-03T17:34:56.808Z,100363.58
2018-03-03T17:37:22.594Z,100376.87
2018-03-03T17:39:48.313Z,100371.73
2018-03-03T17:42:14.059Z,100374.69
2018-03-03T17:44:39.814Z,100372.81
2018-03-03T17:47:05.559Z,100372.64
2018-03-03T17:49:31.313Z,100384.62
2018-03-03T17:51:57.071Z,100381.23
2018-03-03T17:54:22.816Z,100380.28
2018-03-03T17:56:48.559Z,100375.00
2018-03-03T17:59:14.326Z,100380.16
2018-03-03T18:01:40.079Z,100380.68
2018-03-03T18:04:05.849Z,100385.14
2018-03-03T18:06:31.597Z,100381.45
2018-03-03T18:08:57.370Z,100380.98
2018-03-03T18:11:23.156Z,100381.45
2018-03-03T18:13:56.819Z,100378.03
2018-03-03T18:16:23.155Z,100374.12
2018-03-03T18:18:49.506Z,100377.95
2018-03-03T18:21:15.308Z,100369.80
2018-03-03T18:23:41.092Z,100373.08
2018-03-03T18:26:06.889Z,100380.91
2018-03-03T18:28:32.653Z,100379.61
2018-03-03T18:30:58.543Z,100383.93
2018-03-03T18:33:24.330Z,100383.97
2018-03-03T18:35:50.081Z,100387.77
2018-03-03T18:38:15.841Z,100388.02
2018-03-03T18:40:41.587Z,100396.25
2018-03-03T18:43:07.334Z,100400.93
2018-03-03T18:45:33.097Z,100400.48
2018-03-03T18:47:58.841Z,100405.98
2018-03-03T18:50:24.649Z,100412.80
2018-03-03T18:52:50.350Z,100409.77
2018-03-03T18:55:16.106Z,100409.38
2018-03-03T18:57:41.858Z,100404.50
2018-03-03T19:00:07.647Z,100414.09
2018-03-03T19:02:33.403Z,100416.92
2018-03-03T19:04:59.161Z,100403.53
2018-03-03T19:07:24.929Z,100414.66
2018-03-03T19:09:50.674Z,100410.27
2018-03-03T19:12:16.425Z,100415.31
2018-03-03T19:14:42.179Z,100416.72
2018-03-03T19:17:07.947Z,100421.84
2018-03-03T19:19:33.708Z,100424.67
2018-03-03T19:21:59.453Z,100427.58
2018-03-03T19:24:25.203Z,100428.38
2018-03-03T19:26:50.946Z,100421.00
2018-03-03T19:29:16.681Z,100432.94
2018-03-03T19:31:42.439Z,100435.11
2018-03-03T19:34:08.175Z,100432.41
2018-03-03T19:36:33.931Z,100429.47
2018-03-03T19:38:59.654Z,100441.08
2018-03-03T19:41:25.406Z,100440.47
2018-03-03T19:43:51.133Z,100437.33
2018-03-03T19:46:16.882Z,100442.24
2018-03-03T19:48:42.626Z,100440.72
2018-03-03T19:51:08.378Z,100444.95
2018-03-03T19:53:34.164Z,100452.12
2018-03-03T19:55:59.885Z,100444.50
2018-03-03T19:58:25.645Z,100448.41
2018-03-03T20:03:23.895Z,100453.97
2018-03-03T20:05:49.650Z,100461.27
2018-03-03T20:08:15.406Z,100448.13
2018-03-03T20:10:41.190Z,100457.55
2018-03-03T20:13:06.956Z,100453.59
2018-03-03T20:15:32.696Z,100469.56
2018-03-03T20:17:58.443Z,100468.81
2018-03-03T20:20:24.189Z,100470.45
2018-03-03T20:22:49.938Z,100471.62
2018-03-03T20:25:15.693Z,100471.70
2018-03-03T20:27:41.450Z,100465.56
2018-03-03T20:30:07.192Z,100468.05
2018-03-03T20:32:32.953Z,100472.05
2018-03-03T20:34:58.695Z,100470.68
2018-03-03T20:37:24.452Z,100466.28
2018-03-03T20:39:50.202Z,100466.72
2018-03-03T20:42:15.954Z,100460.00
2018-03-03T20:44:41.698Z,100457.47
2018-03-03T20:47:07.453Z,100457.34
2018-03-03T20:49:33.202Z,100453.02
2018-03-03T20:51:58.966Z,100453.52
2018-03-03T20:54:24.721Z,100442.75
2018-03-03T20:56:50.479Z,100447.02
2018-03-03T20:59:16.220Z,100442.94
2018-03-03T21:01:41.961Z,100443.69
2018-03-03T21:04:07.716Z,100443.16
2018-03-03T21:06:33.451Z,100437.25
2018-03-03T21:08:59.204Z,100433.14
2018-03-03T21:11:26.753Z,100437.86
2018-03-03T21:13:52.534Z,100435.41
2018-03-03T21:16:18.278Z,100433.81
2018-03-03T21:18:44.030Z,100436.67
2018-03-03T21:21:09.778Z,100447.08
2018-03-03T21:23:35.539Z,100436.27
2018-03-03T21:26:01.295Z,100440.22
2018-03-03T21:28:27.049Z,100442.80
2018-03-03T21:30:52.816Z,100451.13
2018-03-03T21:33:18.587Z,100440.23
2018-03-03T21:35:44.370Z,100447.66
2018-03-03T21:38:10.125Z,100441.61
2018-03-03T21:40:35.865Z,100446.72
2018-03-03T21:43:01.622Z,100440.27
2018-03-03T21:45:27.376Z,100446.23
2018-03-03T21:47:53.122Z,100452.41
2018-03-03T21:50:18.870Z,100441.22
2018-03-03T21:52:44.626Z,100441.52
2018-03-03T21:55:10.388Z,100440.80
2018-03-03T21:57:36.156Z,100439.88
2018-03-03T22:00:01.920Z,100441.03
2018-03-03T22:02:27.677Z,100442.09
2018-03-03T22:04:53.454Z,100449.95
2018-03-03T22:07:19.186Z,100446.45
2018-03-03T22:09:44.942Z,100454.27
2018-03-03T22:12:10.920Z,100445.25
2018-03-03T22:14:36.673Z,100452.45
2018-03-03T22:17:02.397Z,100455.29
2018-03-03T22:19:28.146Z,100453.25
2018-03-03T22:21:53.890Z,100456.52
2018-03-03T22:24:19.646Z,100452.31
2018-03-03T22:26:52.392Z,100449.09
2018-03-03T22:29:18.135Z,100443.98
2018-03-03T22:31:43.870Z,100448.80
2018-03-03T22:34:09.616Z,100449.80
2018-03-03T22:36:35.354Z,100450.04
2018-03-03T22:39:01.114Z,100452.03
2018-03-03T22:41:26.878Z,100450.90
2018-03-03T22:43:52.618Z,100449.28
2018-03-03T22:46:18.370Z,100448.30
2018-03-03T22:48:44.105Z,100445.28
2018-03-03T22:51:09.851Z,100441.45
2018-03-03T22:53:35.590Z,100439.78
2018-03-03T22:56:01.330Z,100446.62
2018-03-03T22:58:27.071Z,100443.02
2018-03-03T23:00:53.147Z,100439.28
2018-03-03T23:03:18.889Z,100430.00
2018-03-03T23:05:44.639Z,100436.75
2018-03-03T23:08:10.386Z,100433.02
2018-03-03T23:10:36.137Z,100437.05
2018-03-03T23:13:01.865Z,100428.61
2018-03-03T23:15:27.627Z,100429.45
2018-03-03T23:17:53.361Z,100435.61
2018-03-03T23:20:19.116Z,100435.34
2018-03-03T23:22:44.855Z,100427.94
2018-03-03T23:25:10.609Z,100433.87
2018-03-03T23:27:36.351Z,100434.86
2018-03-03T23:30:02.119Z,100429.66
2018-03-03T23:32:27.858Z,100428.84
2018-03-03T23:34:53.602Z,100430.77
2018-03-03T23:37:19.338Z,100436.11
2018-03-03T23:39:45.072Z,100437.86
2018-03-03T23:42:10.834Z,100433.44
2018-03-03T23:44:36.566Z,100438.59
2018-03-03T23:47:02.314Z,100429.48
2018-03-03T23:49:28.054Z,100428.13
2018-03-03T23:51:53.800Z,100436.42
2018-03-03T23:54:19.550Z,100436.71
2018-03-03T23:56:45.294Z,100438.95
2018-03-03T23:59:11.032Z,100445.03
